sensor_id;sensor_type;location;lat;lon;timestamp;temperature;humidity
53776;DHT22;44276;49.534;6.378;2024-03-02T00:00:50;8.10;70.00
53776;DHT22;44276;49.534;6.378;2024-03-02T00:03:20;8.00;71.50
53776;DHT22;44276;49.534;6.378;2024-03-02T00:05:54;7.90;72.60
53776;DHT22;44276;49.534;6.378;2024-03-02T00:08:27;8.00;72.30
53776;DHT22;44276;49.534;6.378;2024-03-02T00:11:05;8.00;73.10
53776;DHT22;44276;49.534;6.378;2024-03-02T00:13:42;7.90;72.00
53776;DHT22;44276;49.534;6.378;2024-03-02T00:16:10;7.90;74.00
53776;DHT22;44276;49.534;6.378;2024-03-02T00:18:39;7.80;75.60
53776;DHT22;44276;49.534;6.378;2024-03-02T00:21:08;7.70;77.40
53776;DHT22;44276;49.534;6.378;2024-03-02T00:23:43;7.70;79.20
53776;DHT22;44276;49.534;6.378;2024-03-02T00:26:12;7.70;76.30
53776;DHT22;44276;49.534;6.378;2024-03-02T00:28:40;7.70;76.30
53776;DHT22;44276;49.534;6.378;2024-03-02T00:31:12;7.80;73.50
53776;DHT22;44276;49.534;6.378;2024-03-02T00:33:45;8.00;70.20
53776;DHT22;44276;49.534;6.378;2024-03-02T00:36:16;8.00;73.40
53776;DHT22;44276;49.534;6.378;2024-03-02T00:38:52;7.80;74.50
53776;DHT22;44276;49.534;6.378;2024-03-02T00:41:23;8.00;72.00
53776;DHT22;44276;49.534;6.378;2024-03-02T00:44:00;7.90;72.10
53776;DHT22;44276;49.534;6.378;2024-03-02T00:46:33;7.90;73.80
53776;DHT22;44276;49.534;6.378;2024-03-02T00:49:03;7.90;72.20
53776;DHT22;44276;49.534;6.378;2024-03-02T00:51:46;7.80;74.60
53776;DHT22;44276;49.534;6.378;2024-03-02T00:54:19;7.80;74.70
53776;DHT22;44276;49.534;6.378;2024-03-02T00:56:54;7.90;70.60
53776;DHT22;44276;49.534;6.378;2024-03-02T00:59:23;7.90;71.40
53776;DHT22;44276;49.534;6.378;2024-03-02T01:01:56;7.90;71.00
53776;DHT22;44276;49.534;6.378;2024-03-02T01:04:28;7.90;70.50
53776;DHT22;44276;49.534;6.378;2024-03-02T01:06:56;8.10;66.30
53776;DHT22;44276;49.534;6.378;2024-03-02T01:09:27;8.10;65.00
53776;DHT22;44276;49.534;6.378;2024-03-02T01:11:55;8.20;64.70
53776;DHT22;44276;49.534;6.378;2024-03-02T01:14:23;8.20;65.80
53776;DHT22;44276;49.534;6.378;2024-03-02T01:16:52;8.20;64.70
53776;DHT22;44276;49.534;6.378;2024-03-02T01:19:20;8.30;62.60
53776;DHT22;44276;49.534;6.378;2024-03-02T01:21:49;8.20;63.70
53776;DHT22;44276;49.534;6.378;2024-03-02T01:24:18;8.10;67.60
53776;DHT22;44276;49.534;6.378;2024-03-02T01:26:48;8.00;65.30
53776;DHT22;44276;49.534;6.378;2024-03-02T01:29:17;8.10;65.10
53776;DHT22;44276;49.534;6.378;2024-03-02T01:31:46;8.30;64.00
53776;DHT22;44276;49.534;6.378;2024-03-02T01:34:16;8.30;63.60
53776;DHT22;44276;49.534;6.378;2024-03-02T01:36:49;8.20;65.60
53776;DHT22;44276;49.534;6.378;2024-03-02T01:39:21;8.20;64.70
53776;DHT22;44276;49.534;6.378;2024-03-02T01:41:52;8.10;66.30
53776;DHT22;44276;49.534;6.378;2024-03-02T01:44:21;8.10;68.10
53776;DHT22;44276;49.534;6.378;2024-03-02T01:46:49;8.10;65.60
53776;DHT22;44276;49.534;6.378;2024-03-02T01:49:18;8.20;67.20
53776;DHT22;44276;49.534;6.378;2024-03-02T01:51:47;8.30;64.90
53776;DHT22;44276;49.534;6.378;2024-03-02T01:54:17;8.40;63.90
53776;DHT22;44276;49.534;6.378;2024-03-02T01:56:51;8.50;64.00
53776;DHT22;44276;49.534;6.378;2024-03-02T01:59:24;8.50;63.50
53776;DHT22;44276;49.534;6.378;2024-03-02T02:01:55;8.60;63.20
53776;DHT22;44276;49.534;6.378;2024-03-02T02:04:28;8.60;66.20
53776;DHT22;44276;49.534;6.378;2024-03-02T02:07:01;8.60;67.40
53776;DHT22;44276;49.534;6.378;2024-03-02T02:09:33;8.50;67.00
53776;DHT22;44276;49.534;6.378;2024-03-02T02:12:25;8.50;69.00
53776;DHT22;44276;49.534;6.378;2024-03-02T02:14:59;8.50;69.30
53776;DHT22;44276;49.534;6.378;2024-03-02T02:17:37;8.50;68.00
53776;DHT22;44276;49.534;6.378;2024-03-02T02:20:11;8.60;67.60
53776;DHT22;44276;49.534;6.378;2024-03-02T02:22:57;8.60;67.40
53776;DHT22;44276;49.534;6.378;2024-03-02T02:25:27;8.60;67.40
53776;DHT22;44276;49.534;6.378;2024-03-02T02:27:59;8.60;66.80
53776;DHT22;44276;49.534;6.378;2024-03-02T02:30:30;8.60;67.80
53776;DHT22;44276;49.534;6.378;2024-03-02T02:33:00;8.50;69.80
53776;DHT22;44276;49.534;6.378;2024-03-02T02:35:32;8.40;73.10
53776;DHT22;44276;49.534;6.378;2024-03-02T02:38:05;8.40;73.80
53776;DHT22;44276;49.534;6.378;2024-03-02T02:40:37;8.40;73.60
53776;DHT22;44276;49.534;6.378;2024-03-02T02:43:09;8.40;76.60
53776;DHT22;44276;49.534;6.378;2024-03-02T02:45:37;8.40;79.60
53776;DHT22;44276;49.534;6.378;2024-03-02T02:48:07;8.50;76.90
53776;DHT22;44276;49.534;6.378;2024-03-02T02:50:51;8.60;73.80
53776;DHT22;44276;49.534;6.378;2024-03-02T02:53:28;8.50;75.50
53776;DHT22;44276;49.534;6.378;2024-03-02T02:55:56;8.40;80.00
53776;DHT22;44276;49.534;6.378;2024-03-02T02:58:27;8.30;83.10
53776;DHT22;44276;49.534;6.378;2024-03-02T03:00:57;8.30;84.00
53776;DHT22;44276;49.534;6.378;2024-03-02T03:03:25;8.20;84.80
53776;DHT22;44276;49.534;6.378;2024-03-02T03:05:54;8.20;83.80
53776;DHT22;44276;49.534;6.378;2024-03-02T03:08:22;8.20;85.50
53776;DHT22;44276;49.534;6.378;2024-03-02T03:10:52;8.10;84.50
53776;DHT22;44276;49.534;6.378;2024-03-02T03:13:20;8.10;88.20
53776;DHT22;44276;49.534;6.378;2024-03-02T03:15:49;8.10;91.80
53776;DHT22;44276;49.534;6.378;2024-03-02T03:18:17;8.00;92.90
53776;DHT22;44276;49.534;6.378;2024-03-02T03:20:46;7.90;95.10
53776;DHT22;44276;49.534;6.378;2024-03-02T03:23:14;7.90;98.70
53776;DHT22;44276;49.534;6.378;2024-03-02T03:25:43;7.80;99.50
53776;DHT22;44276;49.534;6.378;2024-03-02T03:28:13;7.80;99.90
53776;DHT22;44276;49.534;6.378;2024-03-02T03:30:41;7.70;99.90
53776;DHT22;44276;49.534;6.378;2024-03-02T03:33:10;7.70;99.90
53776;DHT22;44276;49.534;6.378;2024-03-02T03:35:38;7.70;99.90
53776;DHT22;44276;49.534;6.378;2024-03-02T03:38:09;7.70;99.90
53776;DHT22;44276;49.534;6.378;2024-03-02T03:40:38;7.60;99.90
53776;DHT22;44276;49.534;6.378;2024-03-02T03:43:07;7.60;99.90
53776;DHT22;44276;49.534;6.378;2024-03-02T03:45:39;7.60;99.90
53776;DHT22;44276;49.534;6.378;2024-03-02T03:48:11;7.60;99.90
53776;DHT22;44276;49.534;6.378;2024-03-02T03:50:39;7.60;99.90
53776;DHT22;44276;49.534;6.378;2024-03-02T03:53:08;7.60;99.90
53776;DHT22;44276;49.534;6.378;2024-03-02T03:55:36;7.60;99.90
53776;DHT22;44276;49.534;6.378;2024-03-02T03:58:05;7.50;99.90
53776;DHT22;44276;49.534;6.378;2024-03-02T04:00:33;7.50;99.90
53776;DHT22;44276;49.534;6.378;2024-03-02T04:03:03;7.50;99.90
53776;DHT22;44276;49.534;6.378;2024-03-02T04:05:36;7.50;99.90
53776;DHT22;44276;49.534;6.378;2024-03-02T04:08:06;7.40;99.90
53776;DHT22;44276;49.534;6.378;2024-03-02T04:10:35;7.50;99.90
53776;DHT22;44276;49.534;6.378;2024-03-02T04:13:06;7.40;99.90
53776;DHT22;44276;49.534;6.378;2024-03-02T04:15:34;7.40;99.90
53776;DHT22;44276;49.534;6.378;2024-03-02T04:18:04;7.50;99.90
53776;DHT22;44276;49.534;6.378;2024-03-02T04:20:33;7.40;99.90
53776;DHT22;44276;49.534;6.378;2024-03-02T04:23:01;7.40;99.90
53776;DHT22;44276;49.534;6.378;2024-03-02T04:25:29;7.40;99.90
53776;DHT22;44276;49.534;6.378;2024-03-02T04:27:58;7.40;99.90
53776;DHT22;44276;49.534;6.378;2024-03-02T04:30:26;7.40;99.90
53776;DHT22;44276;49.534;6.378;2024-03-02T04:32:55;7.30;99.90
53776;DHT22;44276;49.534;6.378;2024-03-02T04:35:25;7.30;99.90
53776;DHT22;44276;49.534;6.378;2024-03-02T04:37:56;7.30;99.90
53776;DHT22;44276;49.534;6.378;2024-03-02T04:40:24;7.30;99.90
53776;DHT22;44276;49.534;6.378;2024-03-02T04:42:52;7.20;99.90
53776;DHT22;44276;49.534;6.378;2024-03-02T04:45:26;7.30;99.90
53776;DHT22;44276;49.534;6.378;2024-03-02T04:47:55;7.30;99.90
53776;DHT22;44276;49.534;6.378;2024-03-02T04:50:25;7.30;99.90
53776;DHT22;44276;49.534;6.378;2024-03-02T04:52:57;7.30;99.90
53776;DHT22;44276;49.534;6.378;2024-03-02T04:55:25;7.30;99.90
53776;DHT22;44276;49.534;6.378;2024-03-02T04:58:18;7.20;99.90
53776;DHT22;44276;49.534;6.378;2024-03-02T05:00:49;7.30;99.90
53776;DHT22;44276;49.534;6.378;2024-03-02T05:03:18;7.20;99.90
53776;DHT22;44276;49.534;6.378;2024-03-02T05:05:49;7.20;99.90
53776;DHT22;44276;49.534;6.378;2024-03-02T05:08:18;7.20;99.90
53776;DHT22;44276;49.534;6.378;2024-03-02T05:10:48;7.20;99.90
53776;DHT22;44276;49.534;6.378;2024-03-02T05:13:16;7.20;99.90
53776;DHT22;44276;49.534;6.378;2024-03-02T05:15:44;7.20;99.90
53776;DHT22;44276;49.534;6.378;2024-03-02T05:18:13;7.30;99.90
53776;DHT22;44276;49.534;6.378;2024-03-02T05:20:52;7.30;99.90
53776;DHT22;44276;49.534;6.378;2024-03-02T05:23:20;7.30;99.90
53776;DHT22;44276;49.534;6.378;2024-03-02T05:25:52;7.30;99.90
53776;DHT22;44276;49.534;6.378;2024-03-02T05:28:21;7.30;99.90
53776;DHT22;44276;49.534;6.378;2024-03-02T05:30:52;7.30;99.90
53776;DHT22;44276;49.534;6.378;2024-03-02T05:33:26;7.20;99.90
53776;DHT22;44276;49.534;6.378;2024-03-02T05:36:00;7.20;99.90
53776;DHT22;44276;49.534;6.378;2024-03-02T05:38:32;7.10;99.90
53776;DHT22;44276;49.534;6.378;2024-03-02T05:41:07;7.20;99.90
53776;DHT22;44276;49.534;6.378;2024-03-02T05:43:41;7.20;99.90
53776;DHT22;44276;49.534;6.378;2024-03-02T05:46:16;7.20;99.90
53776;DHT22;44276;49.534;6.378;2024-03-02T05:48:50;7.20;99.90
53776;DHT22;44276;49.534;6.378;2024-03-02T05:51:22;7.30;99.90
53776;DHT22;44276;49.534;6.378;2024-03-02T05:53:51;7.20;99.90
53776;DHT22;44276;49.534;6.378;2024-03-02T05:56:24;7.20;99.90
53776;DHT22;44276;49.534;6.378;2024-03-02T05:58:57;7.10;99.90
53776;DHT22;44276;49.534;6.378;2024-03-02T06:01:43;7.00;99.90
53776;DHT22;44276;49.534;6.378;2024-03-02T06:04:18;6.90;99.90
53776;DHT22;44276;49.534;6.378;2024-03-02T06:06:54;6.80;99.90
53776;DHT22;44276;49.534;6.378;2024-03-02T06:09:32;6.80;99.90
53776;DHT22;44276;49.534;6.378;2024-03-02T06:12:06;6.70;99.90
53776;DHT22;44276;49.534;6.378;2024-03-02T06:14:43;6.70;99.90
53776;DHT22;44276;49.534;6.378;2024-03-02T06:17:15;6.70;99.90
53776;DHT22;44276;49.534;6.378;2024-03-02T06:19:49;6.50;99.90
53776;DHT22;44276;49.534;6.378;2024-03-02T06:22:19;6.50;99.90
53776;DHT22;44276;49.534;6.378;2024-03-02T06:24:57;6.50;99.90
53776;DHT22;44276;49.534;6.378;2024-03-02T06:27:34;6.40;99.90
53776;DHT22;44276;49.534;6.378;2024-03-02T06:30:06;6.30;99.90
53776;DHT22;44276;49.534;6.378;2024-03-02T06:32:37;6.30;99.90
53776;DHT22;44276;49.534;6.378;2024-03-02T06:35:06;6.60;99.90
53776;DHT22;44276;49.534;6.378;2024-03-02T06:37:38;6.80;99.90
53776;DHT22;44276;49.534;6.378;2024-03-02T06:40:09;7.00;99.90
53776;DHT22;44276;49.534;6.378;2024-03-02T06:42:37;7.10;99.90
53776;DHT22;44276;49.534;6.378;2024-03-02T06:45:06;7.30;99.90
53776;DHT22;44276;49.534;6.378;2024-03-02T06:47:34;7.40;99.90
53776;DHT22;44276;49.534;6.378;2024-03-02T06:50:03;7.50;99.90
53776;DHT22;44276;49.534;6.378;2024-03-02T06:52:33;7.70;99.90
53776;DHT22;44276;49.534;6.378;2024-03-02T06:55:06;7.80;99.90
53776;DHT22;44276;49.534;6.378;2024-03-02T06:57:38;8.00;99.90
53776;DHT22;44276;49.534;6.378;2024-03-02T07:00:07;8.10;99.90
53776;DHT22;44276;49.534;6.378;2024-03-02T07:02:44;8.10;99.90
53776;DHT22;44276;49.534;6.378;2024-03-02T07:05:13;8.30;99.90
53776;DHT22;44276;49.534;6.378;2024-03-02T07:07:43;8.50;99.90
53776;DHT22;44276;49.534;6.378;2024-03-02T07:10:21;8.60;99.90
53776;DHT22;44276;49.534;6.378;2024-03-02T07:12:49;8.70;99.90
53776;DHT22;44276;49.534;6.378;2024-03-02T07:15:22;8.80;99.90
53776;DHT22;44276;49.534;6.378;2024-03-02T07:18:11;9.00;99.90
53776;DHT22;44276;49.534;6.378;2024-03-02T07:20:41;9.00;99.90
53776;DHT22;44276;49.534;6.378;2024-03-02T07:23:14;9.00;99.90
53776;DHT22;44276;49.534;6.378;2024-03-02T07:25:43;9.00;99.90
53776;DHT22;44276;49.534;6.378;2024-03-02T07:28:14;8.90;99.90
53776;DHT22;44276;49.534;6.378;2024-03-02T07:30:42;9.00;99.90
53776;DHT22;44276;49.534;6.378;2024-03-02T07:33:12;9.10;99.90
53776;DHT22;44276;49.534;6.378;2024-03-02T07:35:45;9.40;99.90
53776;DHT22;44276;49.534;6.378;2024-03-02T07:38:14;9.50;99.90
53776;DHT22;44276;49.534;6.378;2024-03-02T07:40:43;9.50;99.90
53776;DHT22;44276;49.534;6.378;2024-03-02T07:43:12;9.40;99.90
53776;DHT22;44276;49.534;6.378;2024-03-02T07:45:42;9.30;99.90
53776;DHT22;44276;49.534;6.378;2024-03-02T07:48:19;9.40;99.90
53776;DHT22;44276;49.534;6.378;2024-03-02T07:50:48;9.40;99.90
53776;DHT22;44276;49.534;6.378;2024-03-02T07:53:16;9.40;99.90
53776;DHT22;44276;49.534;6.378;2024-03-02T07:55:45;9.40;99.90
53776;DHT22;44276;49.534;6.378;2024-03-02T07:58:13;9.20;99.90
53776;DHT22;44276;49.534;6.378;2024-03-02T08:00:42;9.00;99.90
53776;DHT22;44276;49.534;6.378;2024-03-02T08:03:10;8.80;99.90
53776;DHT22;44276;49.534;6.378;2024-03-02T08:05:39;8.80;99.90
53776;DHT22;44276;49.534;6.378;2024-03-02T08:08:07;8.80;99.90
53776;DHT22;44276;49.534;6.378;2024-03-02T08:10:35;8.80;99.90
53776;DHT22;44276;49.534;6.378;2024-03-02T08:13:05;8.80;99.90
53776;DHT22;44276;49.534;6.378;2024-03-02T08:15:33;8.70;99.90
53776;DHT22;44276;49.534;6.378;2024-03-02T08:18:02;8.70;99.90
53776;DHT22;44276;49.534;6.378;2024-03-02T08:20:30;9.00;99.90
53776;DHT22;44276;49.534;6.378;2024-03-02T08:22:58;9.30;99.90
53776;DHT22;44276;49.534;6.378;2024-03-02T08:25:26;9.50;99.90
53776;DHT22;44276;49.534;6.378;2024-03-02T08:27:55;9.50;99.90
53776;DHT22;44276;49.534;6.378;2024-03-02T08:30:25;9.50;99.90
53776;DHT22;44276;49.534;6.378;2024-03-02T08:32:53;9.60;99.90
53776;DHT22;44276;49.534;6.378;2024-03-02T08:35:22;9.50;99.90
53776;DHT22;44276;49.534;6.378;2024-03-02T08:37:50;9.40;99.90
53776;DHT22;44276;49.534;6.378;2024-03-02T08:40:18;9.40;99.90
53776;DHT22;44276;49.534;6.378;2024-03-02T08:42:47;9.40;99.90
53776;DHT22;44276;49.534;6.378;2024-03-02T08:45:15;9.30;99.90
53776;DHT22;44276;49.534;6.378;2024-03-02T08:47:45;9.30;99.90
53776;DHT22;44276;49.534;6.378;2024-03-02T08:50:13;9.40;99.90
53776;DHT22;44276;49.534;6.378;2024-03-02T08:52:42;9.60;99.90
53776;DHT22;44276;49.534;6.378;2024-03-02T08:55:10;9.80;99.90
53776;DHT22;44276;49.534;6.378;2024-03-02T08:57:38;10.00;99.90
53776;DHT22;44276;49.534;6.378;2024-03-02T09:00:09;10.10;99.90
53776;DHT22;44276;49.534;6.378;2024-03-02T09:02:38;10.10;99.90
53776;DHT22;44276;49.534;6.378;2024-03-02T09:05:08;9.90;99.90
53776;DHT22;44276;49.534;6.378;2024-03-02T09:07:36;9.80;99.90
53776;DHT22;44276;49.534;6.378;2024-03-02T09:10:06;9.70;99.90
53776;DHT22;44276;49.534;6.378;2024-03-02T09:12:36;9.90;99.90
53776;DHT22;44276;49.534;6.378;2024-03-02T09:15:06;10.20;99.90
53776;DHT22;44276;49.534;6.378;2024-03-02T09:17:35;10.20;99.90
53776;DHT22;44276;49.534;6.378;2024-03-02T09:20:04;10.20;99.90
53776;DHT22;44276;49.534;6.378;2024-03-02T09:22:35;10.00;99.90
53776;DHT22;44276;49.534;6.378;2024-03-02T09:25:03;9.90;99.90
53776;DHT22;44276;49.534;6.378;2024-03-02T09:27:36;9.90;99.90
53776;DHT22;44276;49.534;6.378;2024-03-02T09:30:06;10.00;99.90
53776;DHT22;44276;49.534;6.378;2024-03-02T09:32:37;10.20;99.90
53776;DHT22;44276;49.534;6.378;2024-03-02T09:35:06;10.50;99.90
53776;DHT22;44276;49.534;6.378;2024-03-02T09:37:37;10.60;99.90
53776;DHT22;44276;49.534;6.378;2024-03-02T09:40:06;11.10;99.90
53776;DHT22;44276;49.534;6.378;2024-03-02T09:42:35;11.60;98.30
53776;DHT22;44276;49.534;6.378;2024-03-02T09:45:05;12.10;92.20
53776;DHT22;44276;49.534;6.378;2024-03-02T09:47:34;12.50;83.50
53776;DHT22;44276;49.534;6.378;2024-03-02T09:50:03;12.50;78.40
53776;DHT22;44276;49.534;6.378;2024-03-02T09:52:32;12.50;79.60
53776;DHT22;44276;49.534;6.378;2024-03-02T09:55:02;12.50;83.50
53776;DHT22;44276;49.534;6.378;2024-03-02T09:57:32;12.60;78.40
53776;DHT22;44276;49.534;6.378;2024-03-02T10:00:00;12.60;77.40
53776;DHT22;44276;49.534;6.378;2024-03-02T10:02:29;12.60;79.50
53776;DHT22;44276;49.534;6.378;2024-03-02T10:04:57;12.40;85.30
53776;DHT22;44276;49.534;6.378;2024-03-02T10:07:26;12.10;88.20
53776;DHT22;44276;49.534;6.378;2024-03-02T10:09:56;11.80;94.40
53776;DHT22;44276;49.534;6.378;2024-03-02T10:12:27;11.70;96.50
53776;DHT22;44276;49.534;6.378;2024-03-02T10:15:03;11.80;97.40
53776;DHT22;44276;49.534;6.378;2024-03-02T10:17:34;12.00;95.20
53776;DHT22;44276;49.534;6.378;2024-03-02T10:20:23;12.50;88.50
53776;DHT22;44276;49.534;6.378;2024-03-02T10:22:52;13.10;72.10
53776;DHT22;44276;49.534;6.378;2024-03-02T10:25:30;13.30;68.70
53776;DHT22;44276;49.534;6.378;2024-03-02T10:28:04;13.60;67.20
53776;DHT22;44276;49.534;6.378;2024-03-02T10:30:33;13.80;63.30
53776;DHT22;44276;49.534;6.378;2024-03-02T10:33:02;13.80;63.00
53776;DHT22;44276;49.534;6.378;2024-03-02T10:35:33;13.30;61.50
53776;DHT22;44276;49.534;6.378;2024-03-02T10:38:04;13.10;67.00
53776;DHT22;44276;49.534;6.378;2024-03-02T10:40:33;13.20;68.00
53776;DHT22;44276;49.534;6.378;2024-03-02T10:43:01;13.10;63.90
53776;DHT22;44276;49.534;6.378;2024-03-02T10:45:34;13.10;65.40
53776;DHT22;44276;49.534;6.378;2024-03-02T10:48:03;13.00;66.20
53776;DHT22;44276;49.534;6.378;2024-03-02T10:50:32;12.70;61.70
53776;DHT22;44276;49.534;6.378;2024-03-02T10:53:01;12.50;62.00
53776;DHT22;44276;49.534;6.378;2024-03-02T10:55:31;12.40;64.50
53776;DHT22;44276;49.534;6.378;2024-03-02T10:58:00;12.40;62.30
53776;DHT22;44276;49.534;6.378;2024-03-02T11:00:37;12.40;59.50
53776;DHT22;44276;49.534;6.378;2024-03-02T11:03:07;12.30;58.60
53776;DHT22;44276;49.534;6.378;2024-03-02T11:05:39;12.60;57.80
53776;DHT22;44276;49.534;6.378;2024-03-02T11:08:13;13.00;53.00
53776;DHT22;44276;49.534;6.378;2024-03-02T11:10:49;13.50;52.40
53776;DHT22;44276;49.534;6.378;2024-03-02T11:13:22;13.90;49.00
53776;DHT22;44276;49.534;6.378;2024-03-02T11:16:05;14.30;46.70
53776;DHT22;44276;49.534;6.378;2024-03-02T11:18:37;14.50;42.90
53776;DHT22;44276;49.534;6.378;2024-03-02T11:21:07;14.40;42.70
53776;DHT22;44276;49.534;6.378;2024-03-02T11:23:36;14.20;40.90
53776;DHT22;44276;49.534;6.378;2024-03-02T11:26:17;14.00;40.70
53776;DHT22;44276;49.534;6.378;2024-03-02T11:28:46;14.20;40.60
53776;DHT22;44276;49.534;6.378;2024-03-02T11:31:16;14.20;41.00
53776;DHT22;44276;49.534;6.378;2024-03-02T11:33:45;14.50;40.00
53776;DHT22;44276;49.534;6.378;2024-03-02T11:36:15;15.10;38.40
53776;DHT22;44276;49.534;6.378;2024-03-02T11:38:44;15.60;37.70
53776;DHT22;44276;49.534;6.378;2024-03-02T11:41:14;16.90;32.60
53776;DHT22;44276;49.534;6.378;2024-03-02T11:43:42;17.20;30.20
53776;DHT22;44276;49.534;6.378;2024-03-02T11:46:12;16.80;29.60
53776;DHT22;44276;49.534;6.378;2024-03-02T11:48:44;16.40;29.80
53776;DHT22;44276;49.534;6.378;2024-03-02T11:51:14;16.50;30.30
53776;DHT22;44276;49.534;6.378;2024-03-02T11:53:42;16.00;30.50
53776;DHT22;44276;49.534;6.378;2024-03-02T11:56:14;16.10;30.40
53776;DHT22;44276;49.534;6.378;2024-03-02T11:58:44;16.30;30.30
53776;DHT22;44276;49.534;6.378;2024-03-02T12:01:16;17.00;28.90
53776;DHT22;44276;49.534;6.378;2024-03-02T12:03:46;17.30;28.20
53776;DHT22;44276;49.534;6.378;2024-03-02T12:06:15;17.40;28.10
53776;DHT22;44276;49.534;6.378;2024-03-02T12:08:45;17.50;27.70
53776;DHT22;44276;49.534;6.378;2024-03-02T12:11:14;17.50;28.10
53776;DHT22;44276;49.534;6.378;2024-03-02T12:13:52;17.50;26.90
53776;DHT22;44276;49.534;6.378;2024-03-02T12:16:24;17.80;26.70
53776;DHT22;44276;49.534;6.378;2024-03-02T12:18:54;18.00;26.40
53776;DHT22;44276;49.534;6.378;2024-03-02T12:21:23;17.80;26.80
53776;DHT22;44276;49.534;6.378;2024-03-02T12:23:51;17.80;26.00
53776;DHT22;44276;49.534;6.378;2024-03-02T12:26:20;17.30;27.70
53776;DHT22;44276;49.534;6.378;2024-03-02T12:28:50;17.30;27.00
53776;DHT22;44276;49.534;6.378;2024-03-02T12:31:18;17.80;27.00
53776;DHT22;44276;49.534;6.378;2024-03-02T12:33:48;18.00;25.90
53776;DHT22;44276;49.534;6.378;2024-03-02T12:36:16;17.80;25.70
53776;DHT22;44276;49.534;6.378;2024-03-02T12:38:45;17.20;26.60
53776;DHT22;44276;49.534;6.378;2024-03-02T12:41:15;16.70;27.40
53776;DHT22;44276;49.534;6.378;2024-03-02T12:43:43;16.30;28.70
53776;DHT22;44276;49.534;6.378;2024-03-02T12:46:11;16.00;29.20
53776;DHT22;44276;49.534;6.378;2024-03-02T12:48:39;16.30;29.60
53776;DHT22;44276;49.534;6.378;2024-03-02T12:51:10;16.40;29.10
53776;DHT22;44276;49.534;6.378;2024-03-02T12:53:38;17.20;28.40
53776;DHT22;44276;49.534;6.378;2024-03-02T12:56:08;17.60;27.30
53776;DHT22;44276;49.534;6.378;2024-03-02T12:58:39;17.50;26.50
53776;DHT22;44276;49.534;6.378;2024-03-02T13:01:08;17.20;27.60
53776;DHT22;44276;49.534;6.378;2024-03-02T13:03:38;17.00;27.00
53776;DHT22;44276;49.534;6.378;2024-03-02T13:06:07;16.90;27.80
53776;DHT22;44276;49.534;6.378;2024-03-02T13:08:38;16.80;28.50
53776;DHT22;44276;49.534;6.378;2024-03-02T13:11:06;16.40;29.20
53776;DHT22;44276;49.534;6.378;2024-03-02T13:13:35;16.10;29.60
53776;DHT22;44276;49.534;6.378;2024-03-02T13:16:08;15.70;30.70
53776;DHT22;44276;49.534;6.378;2024-03-02T13:18:38;15.20;34.80
53776;DHT22;44276;49.534;6.378;2024-03-02T13:21:07;15.00;37.80
53776;DHT22;44276;49.534;6.378;2024-03-02T13:23:35;14.90;40.50
53776;DHT22;44276;49.534;6.378;2024-03-02T13:26:05;14.90;45.10
53776;DHT22;44276;49.534;6.378;2024-03-02T13:28:34;14.70;44.10
53776;DHT22;44276;49.534;6.378;2024-03-02T13:31:02;14.50;49.90
53776;DHT22;44276;49.534;6.378;2024-03-02T13:33:31;14.40;49.20
53776;DHT22;44276;49.534;6.378;2024-03-02T13:35:59;14.30;48.20
53776;DHT22;44276;49.534;6.378;2024-03-02T13:38:29;14.50;44.70
53776;DHT22;44276;49.534;6.378;2024-03-02T13:40:59;14.60;43.80
53776;DHT22;44276;49.534;6.378;2024-03-02T13:43:28;14.50;42.50
53776;DHT22;44276;49.534;6.378;2024-03-02T13:45:58;14.50;42.50
53776;DHT22;44276;49.534;6.378;2024-03-02T13:48:27;14.80;42.90
53776;DHT22;44276;49.534;6.378;2024-03-02T13:50:55;15.40;41.30
53776;DHT22;44276;49.534;6.378;2024-03-02T13:53:24;16.10;38.50
53776;DHT22;44276;49.534;6.378;2024-03-02T13:55:52;16.30;34.40
53776;DHT22;44276;49.534;6.378;2024-03-02T13:58:22;16.60;34.00
53776;DHT22;44276;49.534;6.378;2024-03-02T14:00:50;17.10;32.20
53776;DHT22;44276;49.534;6.378;2024-03-02T14:03:19;17.30;29.00
53776;DHT22;44276;49.534;6.378;2024-03-02T14:05:49;16.50;28.20
53776;DHT22;44276;49.534;6.378;2024-03-02T14:08:19;16.00;29.90
53776;DHT22;44276;49.534;6.378;2024-03-02T14:10:48;16.10;29.90
53776;DHT22;44276;49.534;6.378;2024-03-02T14:13:16;16.00;30.50
53776;DHT22;44276;49.534;6.378;2024-03-02T14:15:46;16.00;31.90
53776;DHT22;44276;49.534;6.378;2024-03-02T14:18:16;16.00;31.70
53776;DHT22;44276;49.534;6.378;2024-03-02T14:20:44;15.90;31.10
53776;DHT22;44276;49.534;6.378;2024-03-02T14:23:18;15.80;31.10
53776;DHT22;44276;49.534;6.378;2024-03-02T14:25:49;15.40;31.20
53776;DHT22;44276;49.534;6.378;2024-03-02T14:28:19;15.40;33.60
53776;DHT22;44276;49.534;6.378;2024-03-02T14:31:08;15.40;34.90
53776;DHT22;44276;49.534;6.378;2024-03-02T14:33:37;14.80;33.90
53776;DHT22;44276;49.534;6.378;2024-03-02T14:36:06;14.70;35.80
53776;DHT22;44276;49.534;6.378;2024-03-02T14:38:35;14.60;38.90
53776;DHT22;44276;49.534;6.378;2024-03-02T14:41:04;14.50;44.40
53776;DHT22;44276;49.534;6.378;2024-03-02T14:43:33;14.20;49.50
53776;DHT22;44276;49.534;6.378;2024-03-02T14:46:01;14.00;52.10
53776;DHT22;44276;49.534;6.378;2024-03-02T14:48:31;14.00;56.10
53776;DHT22;44276;49.534;6.378;2024-03-02T14:50:59;14.00;52.40
53776;DHT22;44276;49.534;6.378;2024-03-02T14:53:29;14.10;53.70
53776;DHT22;44276;49.534;6.378;2024-03-02T14:55:57;14.10;52.80
53776;DHT22;44276;49.534;6.378;2024-03-02T14:58:25;14.00;53.10
53776;DHT22;44276;49.534;6.378;2024-03-02T15:00:54;14.20;52.50
53776;DHT22;44276;49.534;6.378;2024-03-02T15:03:22;14.10;52.90
53776;DHT22;44276;49.534;6.378;2024-03-02T15:05:52;14.20;51.40
53776;DHT22;44276;49.534;6.378;2024-03-02T15:08:20;14.00;52.40
53776;DHT22;44276;49.534;6.378;2024-03-02T15:10:48;13.80;53.40
53776;DHT22;44276;49.534;6.378;2024-03-02T15:13:17;13.60;56.80
53776;DHT22;44276;49.534;6.378;2024-03-02T15:15:45;13.30;65.40
53776;DHT22;44276;49.534;6.378;2024-03-02T15:18:14;13.00;71.50
53776;DHT22;44276;49.534;6.378;2024-03-02T15:20:43;12.80;75.70
53776;DHT22;44276;49.534;6.378;2024-03-02T15:23:12;12.70;80.90
53776;DHT22;44276;49.534;6.378;2024-03-02T15:25:41;12.60;83.60
53776;DHT22;44276;49.534;6.378;2024-03-02T15:28:09;12.60;84.50
53776;DHT22;44276;49.534;6.378;2024-03-02T15:30:37;12.50;83.60
53776;DHT22;44276;49.534;6.378;2024-03-02T15:33:06;12.60;82.40
53776;DHT22;44276;49.534;6.378;2024-03-02T15:35:34;12.60;80.00
53776;DHT22;44276;49.534;6.378;2024-03-02T15:38:03;12.60;84.10
53776;DHT22;44276;49.534;6.378;2024-03-02T15:40:38;12.60;83.50
53776;DHT22;44276;49.534;6.378;2024-03-02T15:43:07;12.60;86.80
53776;DHT22;44276;49.534;6.378;2024-03-02T15:45:37;12.50;86.00
53776;DHT22;44276;49.534;6.378;2024-03-02T15:48:06;12.60;90.00
53776;DHT22;44276;49.534;6.378;2024-03-02T15:50:35;12.60;93.30
53776;DHT22;44276;49.534;6.378;2024-03-02T15:53:04;12.40;99.90
53776;DHT22;44276;49.534;6.378;2024-03-02T15:55:33;12.10;99.90
53776;DHT22;44276;49.534;6.378;2024-03-02T15:58:04;11.90;99.90
53776;DHT22;44276;49.534;6.378;2024-03-02T16:00:32;11.50;99.90